Terminal Aerodrome Forecast
Issued by NWS Cleveland, OH

Home | Current Version | Previous Version | Graphics & Text | Print | Product List | Glossary On
Versions: 1 2 3 4 5 6 7 8 9 10 11 12 13 14 15 16 17 18 19 20 21 22 23 24 25 26
013
FTUS41 KCLE 041131
TAFCLE
TAF
KCLE 041131Z 0412/0518 24010KT P6SM -SN OVC015
     FM041500 24010KT P6SM OVC015
     FM050600 27006KT P6SM BKN035
     FM051000 27006KT P6SM SKC
     FM051200 21006KT P6SM SKC=

USA.gov is the U.S. government's official web portal to all federal, state and local government web resources and services.